sensor_id;sensor_type;location;lat;lon;timestamp;temperature;humidity
11093;DHT22;5600;50.864;6.102;2022-09-09T00:06:42;14.50;99.90
11093;DHT22;5600;50.864;6.102;2022-09-09T00:09:52;14.50;99.90
11093;DHT22;5600;50.864;6.102;2022-09-09T00:13:32;14.30;99.90
11093;DHT22;5600;50.864;6.102;2022-09-09T00:16:38;14.20;99.90
11093;DHT22;5600;50.864;6.102;2022-09-09T00:19:56;14.20;99.90
11093;DHT22;5600;50.864;6.102;2022-09-09T00:23:24;14.10;99.90
11093;DHT22;5600;50.864;6.102;2022-09-09T00:26:33;14.10;99.90
11093;DHT22;5600;50.864;6.102;2022-09-09T00:29:45;14.10;99.90
11093;DHT22;5600;50.864;6.102;2022-09-09T00:33:10;14.00;99.90
11093;DHT22;5600;50.864;6.102;2022-09-09T00:36:22;14.00;99.90
11093;DHT22;5600;50.864;6.102;2022-09-09T00:39:36;14.00;99.90
11093;DHT22;5600;50.864;6.102;2022-09-09T00:42:42;14.00;99.90
11093;DHT22;5600;50.864;6.102;2022-09-09T00:53:02;14.10;99.90
11093;DHT22;5600;50.864;6.102;2022-09-09T00:56:18;14.20;99.90
11093;DHT22;5600;50.864;6.102;2022-09-09T01:06:36;14.50;99.90
11093;DHT22;5600;50.864;6.102;2022-09-09T01:12:48;14.50;99.90
11093;DHT22;5600;50.864;6.102;2022-09-09T01:15:55;14.60;99.90
11093;DHT22;5600;50.864;6.102;2022-09-09T01:18:58;14.70;99.90
11093;DHT22;5600;50.864;6.102;2022-09-09T01:22:34;14.70;99.90
11093;DHT22;5600;50.864;6.102;2022-09-09T01:25:56;14.90;99.90
11093;DHT22;5600;50.864;6.102;2022-09-09T01:29:08;14.90;99.90
11093;DHT22;5600;50.864;6.102;2022-09-09T01:39:26;14.90;99.90
11093;DHT22;5600;50.864;6.102;2022-09-09T01:42:35;14.90;99.90
11093;DHT22;5600;50.864;6.102;2022-09-09T01:45:38;14.90;99.90
11093;DHT22;5600;50.864;6.102;2022-09-09T01:48:41;14.90;99.90
11093;DHT22;5600;50.864;6.102;2022-09-09T01:51:48;14.80;99.90
11093;DHT22;5600;50.864;6.102;2022-09-09T01:54:49;14.90;99.90
11093;DHT22;5600;50.864;6.102;2022-09-09T01:58:18;14.80;99.90
11093;DHT22;5600;50.864;6.102;2022-09-09T02:04:50;14.90;99.90
11093;DHT22;5600;50.864;6.102;2022-09-09T02:08:11;15.00;99.90
11093;DHT22;5600;50.864;6.102;2022-09-09T02:11:29;15.10;99.90
11093;DHT22;5600;50.864;6.102;2022-09-09T02:14:46;15.10;99.90
11093;DHT22;5600;50.864;6.102;2022-09-09T02:17:50;15.30;99.90
11093;DHT22;5600;50.864;6.102;2022-09-09T02:20:53;15.20;99.90
11093;DHT22;5600;50.864;6.102;2022-09-09T02:23:57;15.30;99.90
11093;DHT22;5600;50.864;6.102;2022-09-09T02:27:04;15.20;99.90
11093;DHT22;5600;50.864;6.102;2022-09-09T02:30:09;15.20;99.90
11093;DHT22;5600;50.864;6.102;2022-09-09T02:33:16;15.20;99.90
11093;DHT22;5600;50.864;6.102;2022-09-09T02:36:24;15.20;99.90
11093;DHT22;5600;50.864;6.102;2022-09-09T02:39:27;15.10;99.90
11093;DHT22;5600;50.864;6.102;2022-09-09T02:42:27;15.10;99.90
11093;DHT22;5600;50.864;6.102;2022-09-09T02:45:51;15.10;99.90
11093;DHT22;5600;50.864;6.102;2022-09-09T02:52:08;15.10;99.90
11093;DHT22;5600;50.864;6.102;2022-09-09T02:58:39;15.30;99.90
11093;DHT22;5600;50.864;6.102;2022-09-09T03:01:41;15.30;99.90
11093;DHT22;5600;50.864;6.102;2022-09-09T03:04:41;15.30;99.90
11093;DHT22;5600;50.864;6.102;2022-09-09T03:07:45;15.40;99.90
11093;DHT22;5600;50.864;6.102;2022-09-09T03:10:46;15.30;99.90
11093;DHT22;5600;50.864;6.102;2022-09-09T03:13:49;15.30;99.90
11093;DHT22;5600;50.864;6.102;2022-09-09T03:16:50;15.30;99.90
11093;DHT22;5600;50.864;6.102;2022-09-09T03:19:51;15.30;99.90
11093;DHT22;5600;50.864;6.102;2022-09-09T03:22:56;15.30;99.90
11093;DHT22;5600;50.864;6.102;2022-09-09T03:25:57;15.40;99.90
11093;DHT22;5600;50.864;6.102;2022-09-09T03:29:08;15.80;99.90
11093;DHT22;5600;50.864;6.102;2022-09-09T03:32:10;15.30;99.90
11093;DHT22;5600;50.864;6.102;2022-09-09T03:35:12;15.30;99.90
11093;DHT22;5600;50.864;6.102;2022-09-09T03:38:13;15.20;99.90
11093;DHT22;5600;50.864;6.102;2022-09-09T03:41:14;15.30;99.90
11093;DHT22;5600;50.864;6.102;2022-09-09T03:44:15;15.30;99.90
11093;DHT22;5600;50.864;6.102;2022-09-09T03:47:18;15.40;99.90
11093;DHT22;5600;50.864;6.102;2022-09-09T03:50:19;15.40;99.90
11093;DHT22;5600;50.864;6.102;2022-09-09T03:53:24;15.40;99.90
11093;DHT22;5600;50.864;6.102;2022-09-09T03:56:26;15.40;99.90
11093;DHT22;5600;50.864;6.102;2022-09-09T03:59:28;15.40;99.90
11093;DHT22;5600;50.864;6.102;2022-09-09T04:02:28;15.30;99.90
11093;DHT22;5600;50.864;6.102;2022-09-09T04:05:29;15.30;99.90
11093;DHT22;5600;50.864;6.102;2022-09-09T04:08:30;15.30;99.90
11093;DHT22;5600;50.864;6.102;2022-09-09T04:11:35;15.30;99.90
11093;DHT22;5600;50.864;6.102;2022-09-09T04:14:35;15.40;99.90
11093;DHT22;5600;50.864;6.102;2022-09-09T04:17:39;15.50;99.90
11093;DHT22;5600;50.864;6.102;2022-09-09T04:20:40;15.50;99.90
11093;DHT22;5600;50.864;6.102;2022-09-09T04:23:41;15.60;99.90
11093;DHT22;5600;50.864;6.102;2022-09-09T04:26:42;15.70;99.90
11093;DHT22;5600;50.864;6.102;2022-09-09T04:29:43;15.70;99.90
11093;DHT22;5600;50.864;6.102;2022-09-09T04:32:43;15.70;99.90
11093;DHT22;5600;50.864;6.102;2022-09-09T04:35:46;15.70;99.90
11093;DHT22;5600;50.864;6.102;2022-09-09T04:38:49;15.70;99.90
11093;DHT22;5600;50.864;6.102;2022-09-09T04:41:50;15.90;99.90
11093;DHT22;5600;50.864;6.102;2022-09-09T04:44:51;15.80;99.90
11093;DHT22;5600;50.864;6.102;2022-09-09T04:47:52;15.80;99.90
11093;DHT22;5600;50.864;6.102;2022-09-09T04:50:55;15.70;99.90
11093;DHT22;5600;50.864;6.102;2022-09-09T04:53:57;15.70;99.90
11093;DHT22;5600;50.864;6.102;2022-09-09T04:56:58;17.00;99.90
11093;DHT22;5600;50.864;6.102;2022-09-09T04:59:59;15.60;99.90
11093;DHT22;5600;50.864;6.102;2022-09-09T05:03:05;15.60;99.90
11093;DHT22;5600;50.864;6.102;2022-09-09T05:06:19;15.60;99.90
11093;DHT22;5600;50.864;6.102;2022-09-09T05:09:24;15.60;99.90
11093;DHT22;5600;50.864;6.102;2022-09-09T05:12:25;15.50;99.90
11093;DHT22;5600;50.864;6.102;2022-09-09T05:15:26;15.50;99.90
11093;DHT22;5600;50.864;6.102;2022-09-09T05:18:27;15.50;99.90
11093;DHT22;5600;50.864;6.102;2022-09-09T05:21:29;15.50;99.90
11093;DHT22;5600;50.864;6.102;2022-09-09T05:24:33;15.50;99.90
11093;DHT22;5600;50.864;6.102;2022-09-09T05:27:36;15.50;99.90
11093;DHT22;5600;50.864;6.102;2022-09-09T05:30:38;15.40;99.90
11093;DHT22;5600;50.864;6.102;2022-09-09T05:33:44;15.40;99.90
11093;DHT22;5600;50.864;6.102;2022-09-09T05:36:48;15.40;99.90
11093;DHT22;5600;50.864;6.102;2022-09-09T05:39:50;15.40;99.90
11093;DHT22;5600;50.864;6.102;2022-09-09T05:42:52;15.40;99.90
11093;DHT22;5600;50.864;6.102;2022-09-09T05:46:09;15.40;99.90
11093;DHT22;5600;50.864;6.102;2022-09-09T05:49:13;15.50;99.90
11093;DHT22;5600;50.864;6.102;2022-09-09T05:52:15;15.50;99.90
11093;DHT22;5600;50.864;6.102;2022-09-09T05:55:17;15.50;99.90
11093;DHT22;5600;50.864;6.102;2022-09-09T05:58:19;15.50;99.90
11093;DHT22;5600;50.864;6.102;2022-09-09T06:01:27;16.10;99.90
11093;DHT22;5600;50.864;6.102;2022-09-09T06:04:29;15.50;99.90
11093;DHT22;5600;50.864;6.102;2022-09-09T06:07:33;15.50;99.90
11093;DHT22;5600;50.864;6.102;2022-09-09T06:10:35;15.50;99.90
11093;DHT22;5600;50.864;6.102;2022-09-09T06:13:37;15.50;99.90
11093;DHT22;5600;50.864;6.102;2022-09-09T06:16:41;15.40;99.90
11093;DHT22;5600;50.864;6.102;2022-09-09T06:19:58;15.40;99.90
11093;DHT22;5600;50.864;6.102;2022-09-09T06:22:58;15.40;99.90
11093;DHT22;5600;50.864;6.102;2022-09-09T06:26:10;15.50;99.90
11093;DHT22;5600;50.864;6.102;2022-09-09T06:29:12;15.60;99.90
11093;DHT22;5600;50.864;6.102;2022-09-09T06:32:14;15.60;99.90
11093;DHT22;5600;50.864;6.102;2022-09-09T06:35:17;15.80;99.90
11093;DHT22;5600;50.864;6.102;2022-09-09T06:38:25;16.10;99.90
11093;DHT22;5600;50.864;6.102;2022-09-09T06:41:31;16.10;99.90
11093;DHT22;5600;50.864;6.102;2022-09-09T06:44:34;16.20;99.90
11093;DHT22;5600;50.864;6.102;2022-09-09T06:47:35;16.30;99.90
11093;DHT22;5600;50.864;6.102;2022-09-09T06:50:37;16.40;99.90
11093;DHT22;5600;50.864;6.102;2022-09-09T06:53:40;16.50;99.90
11093;DHT22;5600;50.864;6.102;2022-09-09T06:56:43;16.70;99.90
11093;DHT22;5600;50.864;6.102;2022-09-09T06:59:55;16.90;99.90
11093;DHT22;5600;50.864;6.102;2022-09-09T07:02:57;17.10;99.90
11093;DHT22;5600;50.864;6.102;2022-09-09T07:06:01;17.30;99.90
11093;DHT22;5600;50.864;6.102;2022-09-09T07:09:05;17.30;99.90
11093;DHT22;5600;50.864;6.102;2022-09-09T07:12:07;17.40;99.90
11093;DHT22;5600;50.864;6.102;2022-09-09T07:15:13;17.40;99.90
11093;DHT22;5600;50.864;6.102;2022-09-09T07:18:19;17.40;99.90
11093;DHT22;5600;50.864;6.102;2022-09-09T07:21:22;17.40;99.90
11093;DHT22;5600;50.864;6.102;2022-09-09T07:24:22;17.50;99.90
11093;DHT22;5600;50.864;6.102;2022-09-09T07:27:24;18.10;99.90
11093;DHT22;5600;50.864;6.102;2022-09-09T07:30:25;17.50;99.90
11093;DHT22;5600;50.864;6.102;2022-09-09T07:33:28;17.60;99.90
11093;DHT22;5600;50.864;6.102;2022-09-09T07:36:36;17.60;99.90
11093;DHT22;5600;50.864;6.102;2022-09-09T07:39:39;17.70;99.90
11093;DHT22;5600;50.864;6.102;2022-09-09T07:42:41;17.70;99.90
11093;DHT22;5600;50.864;6.102;2022-09-09T07:45:42;17.70;99.90
11093;DHT22;5600;50.864;6.102;2022-09-09T07:48:51;17.60;99.90
11093;DHT22;5600;50.864;6.102;2022-09-09T07:51:54;17.70;99.90
11093;DHT22;5600;50.864;6.102;2022-09-09T07:54:56;18.00;99.90
11093;DHT22;5600;50.864;6.102;2022-09-09T07:57:59;18.00;99.90
11093;DHT22;5600;50.864;6.102;2022-09-09T08:01:05;17.90;99.90
11093;DHT22;5600;50.864;6.102;2022-09-09T08:04:13;17.80;99.90
11093;DHT22;5600;50.864;6.102;2022-09-09T08:07:20;17.80;99.90
11093;DHT22;5600;50.864;6.102;2022-09-09T08:10:27;18.00;99.90
11093;DHT22;5600;50.864;6.102;2022-09-09T08:13:29;18.60;99.90
11093;DHT22;5600;50.864;6.102;2022-09-09T08:16:35;19.20;99.90
11093;DHT22;5600;50.864;6.102;2022-09-09T08:19:37;19.60;99.90
11093;DHT22;5600;50.864;6.102;2022-09-09T08:22:45;20.20;99.90
11093;DHT22;5600;50.864;6.102;2022-09-09T08:25:48;20.70;99.90
11093;DHT22;5600;50.864;6.102;2022-09-09T08:28:53;21.20;99.90
11093;DHT22;5600;50.864;6.102;2022-09-09T08:31:57;21.30;99.90
11093;DHT22;5600;50.864;6.102;2022-09-09T08:35:00;21.20;99.90
11093;DHT22;5600;50.864;6.102;2022-09-09T08:38:01;20.90;99.90
11093;DHT22;5600;50.864;6.102;2022-09-09T08:51:29;20.50;99.90
11093;DHT22;5600;50.864;6.102;2022-09-09T08:54:33;20.40;99.90
11093;DHT22;5600;50.864;6.102;2022-09-09T08:57:37;20.40;99.90
11093;DHT22;5600;50.864;6.102;2022-09-09T09:04:42;20.80;99.90
11093;DHT22;5600;50.864;6.102;2022-09-09T09:08:39;21.30;99.90
11093;DHT22;5600;50.864;6.102;2022-09-09T09:11:24;20.90;99.90
11093;DHT22;5600;50.864;6.102;2022-09-09T09:14:31;21.10;99.90
11093;DHT22;5600;50.864;6.102;2022-09-09T09:17:38;21.40;99.90
11093;DHT22;5600;50.864;6.102;2022-09-09T09:21:02;21.90;99.90
11093;DHT22;5600;50.864;6.102;2022-09-09T09:24:24;21.90;99.90
11093;DHT22;5600;50.864;6.102;2022-09-09T09:27:35;22.10;99.90
11093;DHT22;5600;50.864;6.102;2022-09-09T09:30:57;22.20;99.90
11093;DHT22;5600;50.864;6.102;2022-09-09T09:33:59;22.70;99.90
11093;DHT22;5600;50.864;6.102;2022-09-09T09:37:15;22.40;99.90
11093;DHT22;5600;50.864;6.102;2022-09-09T09:40:21;21.90;99.90
11093;DHT22;5600;50.864;6.102;2022-09-09T09:43:34;21.80;99.90
11093;DHT22;5600;50.864;6.102;2022-09-09T09:46:41;21.90;99.90
11093;DHT22;5600;50.864;6.102;2022-09-09T09:49:59;21.90;99.90
11093;DHT22;5600;50.864;6.102;2022-09-09T09:53:21;21.50;99.90
11093;DHT22;5600;50.864;6.102;2022-09-09T09:56:28;20.90;99.90
11093;DHT22;5600;50.864;6.102;2022-09-09T09:59:35;20.10;99.90
11093;DHT22;5600;50.864;6.102;2022-09-09T10:02:39;19.70;99.90
11093;DHT22;5600;50.864;6.102;2022-09-09T10:05:45;19.70;99.90
11093;DHT22;5600;50.864;6.102;2022-09-09T10:08:48;19.80;99.90
11093;DHT22;5600;50.864;6.102;2022-09-09T10:19:15;19.50;99.90
11093;DHT22;5600;50.864;6.102;2022-09-09T10:42:16;19.70;99.90
11093;DHT22;5600;50.864;6.102;2022-09-09T10:55:24;19.70;99.90
11093;DHT22;5600;50.864;6.102;2022-09-09T10:58:59;19.60;99.90
11093;DHT22;5600;50.864;6.102;2022-09-09T11:02:13;19.50;99.90
11093;DHT22;5600;50.864;6.102;2022-09-09T11:08:34;20.50;99.90
11093;DHT22;5600;50.864;6.102;2022-09-09T11:11:46;20.50;99.90
11093;DHT22;5600;50.864;6.102;2022-09-09T11:14:56;20.70;99.90
11093;DHT22;5600;50.864;6.102;2022-09-09T11:18:01;21.00;99.90
11093;DHT22;5600;50.864;6.102;2022-09-09T11:21:12;21.20;99.90
11093;DHT22;5600;50.864;6.102;2022-09-09T11:27:40;21.20;99.90
11093;DHT22;5600;50.864;6.102;2022-09-09T11:34:49;21.50;99.90
11093;DHT22;5600;50.864;6.102;2022-09-09T11:38:18;21.00;99.90
11093;DHT22;5600;50.864;6.102;2022-09-09T11:41:23;20.50;99.90
11093;DHT22;5600;50.864;6.102;2022-09-09T11:44:34;20.30;99.90
11093;DHT22;5600;50.864;6.102;2022-09-09T11:47:36;20.00;99.90
11093;DHT22;5600;50.864;6.102;2022-09-09T11:50:37;20.00;99.90
11093;DHT22;5600;50.864;6.102;2022-09-09T11:53:56;20.00;99.90
11093;DHT22;5600;50.864;6.102;2022-09-09T11:57:02;19.90;99.90
11093;DHT22;5600;50.864;6.102;2022-09-09T12:00:41;19.70;99.90
11093;DHT22;5600;50.864;6.102;2022-09-09T12:03:48;19.50;99.90
11093;DHT22;5600;50.864;6.102;2022-09-09T12:06:59;19.40;99.90
11093;DHT22;5600;50.864;6.102;2022-09-09T12:13:31;19.20;99.90
11093;DHT22;5600;50.864;6.102;2022-09-09T12:16:39;19.10;99.90
11093;DHT22;5600;50.864;6.102;2022-09-09T12:19:40;19.30;99.90
11093;DHT22;5600;50.864;6.102;2022-09-09T12:29:54;19.50;99.90
11093;DHT22;5600;50.864;6.102;2022-09-09T12:33:17;19.40;99.90
11093;DHT22;5600;50.864;6.102;2022-09-09T12:36:29;19.40;99.90
11093;DHT22;5600;50.864;6.102;2022-09-09T12:43:22;19.30;99.90
11093;DHT22;5600;50.864;6.102;2022-09-09T12:46:39;19.20;99.90
11093;DHT22;5600;50.864;6.102;2022-09-09T12:49:42;18.90;99.90
11093;DHT22;5600;50.864;6.102;2022-09-09T12:52:44;18.50;99.90
11093;DHT22;5600;50.864;6.102;2022-09-09T12:55:57;18.20;99.90
11093;DHT22;5600;50.864;6.102;2022-09-09T12:58:59;18.20;99.90
11093;DHT22;5600;50.864;6.102;2022-09-09T13:02:00;18.40;99.90
11093;DHT22;5600;50.864;6.102;2022-09-09T13:05:22;18.70;99.90
11093;DHT22;5600;50.864;6.102;2022-09-09T13:08:31;19.40;99.90
11093;DHT22;5600;50.864;6.102;2022-09-09T13:11:41;19.40;99.90
11093;DHT22;5600;50.864;6.102;2022-09-09T13:14:49;19.90;99.90
11093;DHT22;5600;50.864;6.102;2022-09-09T13:17:54;20.20;99.90
11093;DHT22;5600;50.864;6.102;2022-09-09T13:20:56;20.40;99.90
11093;DHT22;5600;50.864;6.102;2022-09-09T13:24:02;20.60;99.90
11093;DHT22;5600;50.864;6.102;2022-09-09T13:27:19;20.60;99.90
11093;DHT22;5600;50.864;6.102;2022-09-09T13:30:33;20.60;99.90
11093;DHT22;5600;50.864;6.102;2022-09-09T13:33:37;20.70;99.90
11093;DHT22;5600;50.864;6.102;2022-09-09T13:36:38;20.50;99.90
11093;DHT22;5600;50.864;6.102;2022-09-09T13:39:51;20.70;99.90
11093;DHT22;5600;50.864;6.102;2022-09-09T13:42:57;20.90;99.90
11093;DHT22;5600;50.864;6.102;2022-09-09T13:46:02;20.90;99.90
11093;DHT22;5600;50.864;6.102;2022-09-09T13:52:16;21.10;99.90
11093;DHT22;5600;50.864;6.102;2022-09-09T13:55:22;21.20;99.90
11093;DHT22;5600;50.864;6.102;2022-09-09T13:58:25;20.90;99.90
11093;DHT22;5600;50.864;6.102;2022-09-09T14:01:27;20.90;99.90
11093;DHT22;5600;50.864;6.102;2022-09-09T14:04:28;20.80;99.90
11093;DHT22;5600;50.864;6.102;2022-09-09T14:07:29;20.80;99.90
11093;DHT22;5600;50.864;6.102;2022-09-09T14:10:30;20.80;99.90
11093;DHT22;5600;50.864;6.102;2022-09-09T14:13:33;20.90;99.90
11093;DHT22;5600;50.864;6.102;2022-09-09T14:16:34;21.00;99.90
11093;DHT22;5600;50.864;6.102;2022-09-09T14:19:35;21.20;99.90
11093;DHT22;5600;50.864;6.102;2022-09-09T14:22:39;21.20;99.90
11093;DHT22;5600;50.864;6.102;2022-09-09T14:25:43;21.00;99.90
11093;DHT22;5600;50.864;6.102;2022-09-09T14:28:43;20.90;99.90
11093;DHT22;5600;50.864;6.102;2022-09-09T14:31:48;20.90;99.90
11093;DHT22;5600;50.864;6.102;2022-09-09T14:34:48;20.80;99.90
11093;DHT22;5600;50.864;6.102;2022-09-09T14:37:50;20.60;99.90
11093;DHT22;5600;50.864;6.102;2022-09-09T14:40:51;20.30;99.90
11093;DHT22;5600;50.864;6.102;2022-09-09T14:43:51;20.10;99.90
11093;DHT22;5600;50.864;6.102;2022-09-09T14:46:52;20.20;99.90
11093;DHT22;5600;50.864;6.102;2022-09-09T14:49:54;20.00;99.90
11093;DHT22;5600;50.864;6.102;2022-09-09T14:52:56;19.90;99.90
11093;DHT22;5600;50.864;6.102;2022-09-09T14:56:04;19.80;99.90
11093;DHT22;5600;50.864;6.102;2022-09-09T14:59:07;19.80;99.90
11093;DHT22;5600;50.864;6.102;2022-09-09T15:02:09;19.80;99.90
11093;DHT22;5600;50.864;6.102;2022-09-09T15:05:12;19.90;99.90
11093;DHT22;5600;50.864;6.102;2022-09-09T15:08:15;19.70;99.90
11093;DHT22;5600;50.864;6.102;2022-09-09T15:11:16;19.40;99.90
11093;DHT22;5600;50.864;6.102;2022-09-09T15:14:18;19.30;99.90
11093;DHT22;5600;50.864;6.102;2022-09-09T15:17:19;19.00;99.90
11093;DHT22;5600;50.864;6.102;2022-09-09T15:20:21;18.70;99.90
11093;DHT22;5600;50.864;6.102;2022-09-09T15:23:23;18.60;99.90
11093;DHT22;5600;50.864;6.102;2022-09-09T15:26:26;18.70;99.90
11093;DHT22;5600;50.864;6.102;2022-09-09T15:29:38;18.90;99.90
11093;DHT22;5600;50.864;6.102;2022-09-09T15:32:39;19.00;99.90
11093;DHT22;5600;50.864;6.102;2022-09-09T15:35:41;19.20;99.90
11093;DHT22;5600;50.864;6.102;2022-09-09T15:38:42;19.30;99.90
11093;DHT22;5600;50.864;6.102;2022-09-09T15:41:47;19.50;99.90
11093;DHT22;5600;50.864;6.102;2022-09-09T15:44:50;19.30;99.90
11093;DHT22;5600;50.864;6.102;2022-09-09T15:47:50;19.50;99.90
11093;DHT22;5600;50.864;6.102;2022-09-09T15:51:03;19.60;99.90
11093;DHT22;5600;50.864;6.102;2022-09-09T15:54:04;19.70;99.90
11093;DHT22;5600;50.864;6.102;2022-09-09T15:57:07;19.80;99.90
11093;DHT22;5600;50.864;6.102;2022-09-09T16:00:10;20.00;99.90
11093;DHT22;5600;50.864;6.102;2022-09-09T16:03:13;19.90;99.90
11093;DHT22;5600;50.864;6.102;2022-09-09T16:06:16;19.90;99.90
11093;DHT22;5600;50.864;6.102;2022-09-09T16:09:20;19.70;99.90
11093;DHT22;5600;50.864;6.102;2022-09-09T16:12:22;19.10;99.90
11093;DHT22;5600;50.864;6.102;2022-09-09T16:15:24;19.60;99.90
11093;DHT22;5600;50.864;6.102;2022-09-09T16:18:26;19.40;99.90
11093;DHT22;5600;50.864;6.102;2022-09-09T16:21:30;19.40;99.90
11093;DHT22;5600;50.864;6.102;2022-09-09T16:24:31;19.30;99.90
11093;DHT22;5600;50.864;6.102;2022-09-09T16:27:32;19.20;99.90
11093;DHT22;5600;50.864;6.102;2022-09-09T16:30:36;19.10;99.90
11093;DHT22;5600;50.864;6.102;2022-09-09T16:33:37;19.10;99.90
11093;DHT22;5600;50.864;6.102;2022-09-09T16:36:40;18.80;99.90
11093;DHT22;5600;50.864;6.102;2022-09-09T16:39:41;18.70;99.90
11093;DHT22;5600;50.864;6.102;2022-09-09T16:42:43;18.60;99.90
11093;DHT22;5600;50.864;6.102;2022-09-09T16:45:45;18.70;99.90
11093;DHT22;5600;50.864;6.102;2022-09-09T16:48:48;18.60;99.90
11093;DHT22;5600;50.864;6.102;2022-09-09T16:51:50;18.60;99.90
11093;DHT22;5600;50.864;6.102;2022-09-09T16:54:55;18.40;99.90
11093;DHT22;5600;50.864;6.102;2022-09-09T16:57:58;18.20;99.90
11093;DHT22;5600;50.864;6.102;2022-09-09T17:01:00;18.10;99.90
11093;DHT22;5600;50.864;6.102;2022-09-09T17:04:06;18.10;99.90
11093;DHT22;5600;50.864;6.102;2022-09-09T17:07:09;18.00;99.90
11093;DHT22;5600;50.864;6.102;2022-09-09T17:10:12;18.00;99.90
11093;DHT22;5600;50.864;6.102;2022-09-09T17:13:15;18.10;99.90
11093;DHT22;5600;50.864;6.102;2022-09-09T17:16:17;18.10;99.90
11093;DHT22;5600;50.864;6.102;2022-09-09T17:19:21;17.90;99.90
11093;DHT22;5600;50.864;6.102;2022-09-09T17:22:23;17.80;99.90
11093;DHT22;5600;50.864;6.102;2022-09-09T17:25:24;17.60;99.90
11093;DHT22;5600;50.864;6.102;2022-09-09T17:28:26;17.40;99.90
11093;DHT22;5600;50.864;6.102;2022-09-09T17:31:31;17.40;99.90
11093;DHT22;5600;50.864;6.102;2022-09-09T17:34:35;17.40;99.90
11093;DHT22;5600;50.864;6.102;2022-09-09T17:37:37;17.40;99.90
11093;DHT22;5600;50.864;6.102;2022-09-09T17:40:38;17.40;99.90
11093;DHT22;5600;50.864;6.102;2022-09-09T17:43:39;17.00;99.90
11093;DHT22;5600;50.864;6.102;2022-09-09T17:46:42;16.70;99.90
11093;DHT22;5600;50.864;6.102;2022-09-09T17:49:48;16.40;99.90
11093;DHT22;5600;50.864;6.102;2022-09-09T17:52:49;16.30;99.90
11093;DHT22;5600;50.864;6.102;2022-09-09T17:55:49;16.20;99.90
11093;DHT22;5600;50.864;6.102;2022-09-09T17:58:53;16.10;99.90
11093;DHT22;5600;50.864;6.102;2022-09-09T18:01:54;15.90;99.90
11093;DHT22;5600;50.864;6.102;2022-09-09T18:04:55;15.90;99.90
11093;DHT22;5600;50.864;6.102;2022-09-09T18:07:56;15.70;99.90
11093;DHT22;5600;50.864;6.102;2022-09-09T18:10:57;15.60;99.90
11093;DHT22;5600;50.864;6.102;2022-09-09T18:14:00;15.50;99.90
11093;DHT22;5600;50.864;6.102;2022-09-09T18:17:01;15.50;99.90
11093;DHT22;5600;50.864;6.102;2022-09-09T18:20:03;15.50;99.90
11093;DHT22;5600;50.864;6.102;2022-09-09T18:23:05;15.60;99.90
11093;DHT22;5600;50.864;6.102;2022-09-09T18:26:11;15.60;99.90
11093;DHT22;5600;50.864;6.102;2022-09-09T18:29:15;15.60;99.90
11093;DHT22;5600;50.864;6.102;2022-09-09T18:32:16;15.60;99.90
11093;DHT22;5600;50.864;6.102;2022-09-09T18:35:19;15.50;99.90
11093;DHT22;5600;50.864;6.102;2022-09-09T18:38:21;15.60;99.90
11093;DHT22;5600;50.864;6.102;2022-09-09T18:41:25;15.70;99.90
11093;DHT22;5600;50.864;6.102;2022-09-09T18:44:29;15.60;99.90
11093;DHT22;5600;50.864;6.102;2022-09-09T18:47:30;15.60;99.90
11093;DHT22;5600;50.864;6.102;2022-09-09T18:50:30;15.70;99.90
11093;DHT22;5600;50.864;6.102;2022-09-09T18:53:31;15.80;99.90
11093;DHT22;5600;50.864;6.102;2022-09-09T18:56:33;15.90;99.90
11093;DHT22;5600;50.864;6.102;2022-09-09T18:59:34;15.90;99.90
11093;DHT22;5600;50.864;6.102;2022-09-09T19:02:35;15.80;99.90
11093;DHT22;5600;50.864;6.102;2022-09-09T19:05:36;15.70;99.90
11093;DHT22;5600;50.864;6.102;2022-09-09T19:08:41;15.60;99.90
11093;DHT22;5600;50.864;6.102;2022-09-09T19:11:43;15.60;99.90
11093;DHT22;5600;50.864;6.102;2022-09-09T19:14:44;15.50;99.90
11093;DHT22;5600;50.864;6.102;2022-09-09T19:17:44;15.60;99.90
11093;DHT22;5600;50.864;6.102;2022-09-09T19:20:45;15.60;99.90
11093;DHT22;5600;50.864;6.102;2022-09-09T19:23:47;15.70;99.90
11093;DHT22;5600;50.864;6.102;2022-09-09T19:26:51;15.70;99.90
11093;DHT22;5600;50.864;6.102;2022-09-09T19:29:52;15.70;99.90
11093;DHT22;5600;50.864;6.102;2022-09-09T19:32:52;15.70;99.90
11093;DHT22;5600;50.864;6.102;2022-09-09T19:35:59;15.80;99.90
11093;DHT22;5600;50.864;6.102;2022-09-09T19:39:02;15.70;99.90
11093;DHT22;5600;50.864;6.102;2022-09-09T19:42:03;15.80;99.90
11093;DHT22;5600;50.864;6.102;2022-09-09T19:45:04;15.80;99.90
11093;DHT22;5600;50.864;6.102;2022-09-09T19:48:06;15.70;99.90
11093;DHT22;5600;50.864;6.102;2022-09-09T19:51:15;15.80;99.90
11093;DHT22;5600;50.864;6.102;2022-09-09T19:54:16;15.60;99.90
11093;DHT22;5600;50.864;6.102;2022-09-09T19:57:16;15.50;99.90
11093;DHT22;5600;50.864;6.102;2022-09-09T20:00:19;15.50;99.90
11093;DHT22;5600;50.864;6.102;2022-09-09T20:03:19;15.40;99.90
11093;DHT22;5600;50.864;6.102;2022-09-09T20:06:22;15.40;99.90
11093;DHT22;5600;50.864;6.102;2022-09-09T20:09:23;15.40;99.90
11093;DHT22;5600;50.864;6.102;2022-09-09T20:12:28;15.50;99.90
11093;DHT22;5600;50.864;6.102;2022-09-09T20:15:29;15.40;99.90
11093;DHT22;5600;50.864;6.102;2022-09-09T20:18:33;15.50;99.90
11093;DHT22;5600;50.864;6.102;2022-09-09T20:21:37;15.50;99.90
11093;DHT22;5600;50.864;6.102;2022-09-09T20:24:39;15.50;99.90
11093;DHT22;5600;50.864;6.102;2022-09-09T20:27:39;15.50;99.90
11093;DHT22;5600;50.864;6.102;2022-09-09T20:30:40;15.50;99.90
11093;DHT22;5600;50.864;6.102;2022-09-09T20:33:42;15.60;99.90
11093;DHT22;5600;50.864;6.102;2022-09-09T20:36:44;15.60;99.90
11093;DHT22;5600;50.864;6.102;2022-09-09T20:39:45;15.60;99.90
11093;DHT22;5600;50.864;6.102;2022-09-09T20:42:46;15.70;99.90
11093;DHT22;5600;50.864;6.102;2022-09-09T20:45:47;15.90;99.90
11093;DHT22;5600;50.864;6.102;2022-09-09T20:48:49;15.80;99.90
11093;DHT22;5600;50.864;6.102;2022-09-09T20:51:58;15.90;99.90
11093;DHT22;5600;50.864;6.102;2022-09-09T20:54:59;15.90;99.90
11093;DHT22;5600;50.864;6.102;2022-09-09T20:58:01;15.90;99.90
11093;DHT22;5600;50.864;6.102;2022-09-09T21:01:04;15.90;99.90
11093;DHT22;5600;50.864;6.102;2022-09-09T21:04:09;15.90;99.90
11093;DHT22;5600;50.864;6.102;2022-09-09T21:07:10;16.20;99.90
11093;DHT22;5600;50.864;6.102;2022-09-09T21:10:11;15.80;99.90
11093;DHT22;5600;50.864;6.102;2022-09-09T21:13:13;15.90;99.90
11093;DHT22;5600;50.864;6.102;2022-09-09T21:16:16;15.90;99.90
11093;DHT22;5600;50.864;6.102;2022-09-09T21:19:20;16.00;99.90
11093;DHT22;5600;50.864;6.102;2022-09-09T21:22:21;16.40;99.90
11093;DHT22;5600;50.864;6.102;2022-09-09T21:25:22;16.00;99.90
11093;DHT22;5600;50.864;6.102;2022-09-09T21:28:23;16.00;99.90
11093;DHT22;5600;50.864;6.102;2022-09-09T21:31:25;16.10;99.90
11093;DHT22;5600;50.864;6.102;2022-09-09T21:34:27;16.10;99.90
11093;DHT22;5600;50.864;6.102;2022-09-09T21:37:28;16.10;99.90
11093;DHT22;5600;50.864;6.102;2022-09-09T21:40:29;16.10;99.90
11093;DHT22;5600;50.864;6.102;2022-09-09T21:43:31;16.20;99.90
11093;DHT22;5600;50.864;6.102;2022-09-09T21:46:32;16.20;99.90